Time;durP1;ratioP1;P1;durP2;ratioP2;P2;SDS_P1;SDS_P2;PMS_P1;PMS_P2;Temp;Humidity;BMP_temperature;BMP_pressure;BME280_temperature;BME280_humidity;BME280_pressure;Samples;Min_cycle;Max_cycle;Signal;HPM_P1;HPM_P2
2022/08/10 00:01:56;;;;;;;;;;;;;;;21.44;36.30;99559.72;2618161;54;19947;-66
2022/08/10 00:04:26;;;;;;;;;;;;;;;21.39;36.04;99554.25;2618143;54;20050;-67
2022/08/10 00:06:55;;;;;;;;;;;;;;;21.31;36.22;99556.47;2617979;54;19942;-67
2022/08/10 00:09:25;;;;;;;;;;;;;;;21.22;36.49;99556.06;2617961;54;19939;-67
2022/08/10 00:11:55;;;;;;;;;;;;;;;21.19;37.00;99554.72;2618642;39;20315;-67
2022/08/10 00:14:24;;;;;;;;;;;;;;;21.21;36.58;99551.75;2617501;54;19946;-66
2022/08/10 00:16:53;;;;;;;;;;;;;;;21.20;36.59;99559.00;2617884;54;19939;-67
2022/08/10 00:19:25;;;;;;;;;;;;;;;21.17;37.01;99553.31;2618025;54;19945;-68
2022/08/10 00:22:15;;;;;;;;;;;;;;;21.10;37.07;99548.06;2618092;54;20026;-67
2022/08/10 00:24:45;;;;;;;;;;;;;;;20.98;37.06;99552.72;2618086;54;19955;-66
2022/08/10 00:27:14;;;;;;;;;;;;;;;20.91;37.37;99549.38;2617922;54;19947;-66
2022/08/10 00:30:03;;;;;;;;;;;;;;;20.87;37.85;99553.59;2618143;54;20034;-67
2022/08/10 00:32:33;;;;;;;;;;;;;;;20.85;37.57;99553.00;2618150;54;20450;-66
2022/08/10 00:35:07;;;;;;;;;;;;;;;20.83;37.37;99555.97;2618081;54;19997;-66
2022/08/10 00:37:36;;;;;;;;;;;;;;;20.80;37.69;99553.75;2617625;54;19957;-66
2022/08/10 00:40:06;;;;;;;;;;;;;;;20.73;37.53;99551.19;2617925;54;19945;-66
2022/08/10 00:42:36;;;;;;;;;;;;;;;20.65;38.08;99548.88;2618065;54;19939;-65
2022/08/10 00:45:06;;;;;;;;;;;;;;;20.63;38.39;99556.38;2618046;54;20460;-67
2022/08/10 00:47:35;;;;;;;;;;;;;;;20.61;38.13;99553.13;2617823;54;19954;-67
2022/08/10 00:50:09;;;;;;;;;;;;;;;20.55;38.47;99554.09;2618029;54;20434;-67
2022/08/10 00:52:39;;;;;;;;;;;;;;;20.51;38.42;99556.44;2617891;54;19938;-67
2022/08/10 00:55:09;;;;;;;;;;;;;;;20.47;38.90;99551.75;2617636;47;20438;-66
2022/08/10 00:57:39;;;;;;;;;;;;;;;20.40;38.62;99551.88;2618140;39;20311;-66
2022/08/10 01:00:10;;;;;;;;;;;;;;;20.28;38.84;99549.22;2618099;54;19954;-67
2022/08/10 01:02:40;;;;;;;;;;;;;;;20.20;39.33;99548.78;2618017;54;19946;-66
2022/08/10 01:05:13;;;;;;;;;;;;;;;20.13;39.38;99554.28;2617230;48;19947;-67
2022/08/10 01:08:06;;;;;;;;;;;;;;;20.04;39.95;99548.47;2618506;39;20334;-67
2022/08/10 01:10:40;;;;;;;;;;;;;;;19.94;39.74;99550.94;2617853;54;19954;-68
2022/08/10 01:13:12;;;;;;;;;;;;;;;19.90;40.06;99557.00;2618455;54;20482;-67
2022/08/10 01:15:49;;;;;;;;;;;;;;;19.85;40.33;99554.22;2618174;54;20442;-67
2022/08/10 01:18:23;;;;;;;;;;;;;;;19.77;40.21;99553.53;2618223;54;19947;-67
2022/08/10 01:21:02;;;;;;;;;;;;;;;19.76;40.45;99551.09;2618323;54;19947;-67
2022/08/10 01:23:49;;;;;;;;;;;;;;;19.86;40.45;99555.84;2618459;54;19946;-66
2022/08/10 01:26:27;;;;;;;;;;;;;;;19.88;40.41;99551.88;2618465;39;20423;-66
2022/08/10 01:29:08;;;;;;;;;;;;;;;19.84;40.25;99552.56;2617485;47;20431;-66
2022/08/10 01:31:42;;;;;;;;;;;;;;;19.84;40.52;99558.78;2618205;54;19938;-66
2022/08/10 01:34:14;;;;;;;;;;;;;;;19.83;40.17;99557.13;2618943;54;19950;-66
2022/08/10 01:36:47;;;;;;;;;;;;;;;19.82;40.44;99550.13;2619202;54;19946;-66
2022/08/10 01:39:20;;;;;;;;;;;;;;;19.81;40.30;99550.38;2618306;51;20431;-67
2022/08/10 01:41:52;;;;;;;;;;;;;;;19.78;40.61;99551.66;2618168;54;19946;-66
2022/08/10 01:44:30;;;;;;;;;;;;;;;19.76;40.81;99551.91;2618293;54;19946;-66
2022/08/10 01:49:51;;;;;;;;;;;;;;;19.59;41.31;99556.28;2617712;54;20021;-66
2022/08/10 01:52:22;;;;;;;;;;;;;;;19.53;40.89;99555.34;2618070;54;19947;-66
2022/08/10 01:54:53;;;;;;;;;;;;;;;19.48;41.68;99557.91;2618178;54;19965;-66
2022/08/10 01:57:25;;;;;;;;;;;;;;;19.49;41.42;99556.06;2618129;39;20006;-67
2022/08/10 01:59:55;;;;;;;;;;;;;;;19.50;41.58;99561.16;2617865;54;19950;-66
2022/08/10 02:02:37;;;;;;;;;;;;;;;19.48;41.63;99560.59;2617927;54;20018;-67
2022/08/10 02:05:07;;;;;;;;;;;;;;;19.45;41.27;99560.25;2618069;54;19938;-67
2022/08/10 02:07:38;;;;;;;;;;;;;;;19.42;41.81;99556.16;2617880;54;19939;-67
2022/08/10 02:10:11;;;;;;;;;;;;;;;19.34;41.85;99555.69;2618140;54;19953;-67
2022/08/10 02:12:42;;;;;;;;;;;;;;;19.25;41.67;99557.88;2617993;39;20338;-67
2022/08/10 02:15:14;;;;;;;;;;;;;;;19.25;42.19;99571.28;2618610;39;20369;-66
2022/08/10 02:17:48;;;;;;;;;;;;;;;19.22;41.98;99567.19;2618020;54;19946;-66
2022/08/10 02:20:33;;;;;;;;;;;;;;;19.20;42.55;99566.63;2618213;54;20666;-66
2022/08/10 02:23:07;;;;;;;;;;;;;;;19.19;42.21;99567.69;2618061;54;19965;-67
2022/08/10 02:25:37;;;;;;;;;;;;;;;19.08;42.35;99560.41;2617732;54;20065;-67
2022/08/10 02:28:12;;;;;;;;;;;;;;;19.05;42.58;99560.88;2617798;54;19939;-67
2022/08/10 02:31:00;;;;;;;;;;;;;;;19.01;42.53;99565.88;2617781;54;19946;-67
2022/08/10 02:33:33;;;;;;;;;;;;;;;18.89;42.71;99573.06;2617785;54;19977;-66
2022/08/10 02:36:07;;;;;;;;;;;;;;;18.81;42.85;99568.00;2617517;54;19946;-66
2022/08/10 02:38:39;;;;;;;;;;;;;;;18.80;43.10;99569.88;2617821;54;19947;-66
2022/08/10 02:41:30;;;;;;;;;;;;;;;18.79;43.29;99573.59;2617696;54;19951;-67
2022/08/10 02:44:23;;;;;;;;;;;;;;;18.83;43.35;99581.19;2617891;54;20591;-68
2022/08/10 02:47:17;;;;;;;;;;;;;;;18.81;43.01;99578.72;2617222;39;20453;-67
2022/08/10 02:49:51;;;;;;;;;;;;;;;18.69;43.20;99577.84;2617127;51;19977;-69
2022/08/10 02:52:22;;;;;;;;;;;;;;;18.65;43.75;99584.69;2618068;39;20362;-67
2022/08/10 02:54:53;;;;;;;;;;;;;;;18.55;43.63;99586.03;2617824;54;19945;-68
2022/08/10 02:57:26;;;;;;;;;;;;;;;18.62;43.77;99582.47;2616748;47;19947;-67
2022/08/10 02:59:57;;;;;;;;;;;;;;;18.59;43.43;99589.09;2617529;54;19946;-67
2022/08/10 03:02:29;;;;;;;;;;;;;;;18.55;43.98;99591.41;2617792;47;19939;-68
2022/08/10 03:05:03;;;;;;;;;;;;;;;18.56;43.80;99584.19;2617874;47;19938;-66
2022/08/10 03:07:37;;;;;;;;;;;;;;;18.54;43.48;99578.25;2618253;54;19939;-66
2022/08/10 03:10:15;;;;;;;;;;;;;;;18.42;44.06;99572.03;2618530;54;19946;-67
2022/08/10 03:12:45;;;;;;;;;;;;;;;18.37;44.08;99585.22;2619148;54;20422;-68
2022/08/10 03:15:16;;;;;;;;;;;;;;;18.36;44.51;99583.59;2625571;54;19957;-67
2022/08/10 03:17:46;;;;;;;;;;;;;;;18.35;44.25;99590.00;2625465;54;19950;-68
2022/08/10 03:20:30;;;;;;;;;;;;;;;18.30;44.66;99586.16;2626755;39;20354;-67
2022/08/10 03:23:09;;;;;;;;;;;;;;;18.31;44.52;99582.41;2626965;39;20357;-67
2022/08/10 03:25:38;;;;;;;;;;;;;;;18.31;44.45;99592.31;2619559;54;20430;-67
2022/08/10 03:28:08;;;;;;;;;;;;;;;18.23;44.42;99598.78;2618209;54;19953;-67
2022/08/10 03:30:46;;;;;;;;;;;;;;;18.05;44.60;99594.25;2618336;54;20454;-67
2022/08/10 03:33:16;;;;;;;;;;;;;;;17.91;45.32;99597.25;2618462;54;19946;-66
2022/08/10 03:35:49;;;;;;;;;;;;;;;17.87;45.62;99596.06;2618285;54;19990;-67
2022/08/10 03:38:39;;;;;;;;;;;;;;;17.88;45.55;99593.19;2618503;54;19946;-67
2022/08/10 03:41:11;;;;;;;;;;;;;;;17.85;45.41;99595.50;2618603;54;19947;-66
2022/08/10 03:43:46;;;;;;;;;;;;;;;17.92;45.30;99598.91;2618491;54;19946;-67
2022/08/10 03:46:17;;;;;;;;;;;;;;;17.86;45.47;99597.13;2617664;54;20018;-66
2022/08/10 03:48:47;;;;;;;;;;;;;;;17.68;45.75;99596.03;2618326;54;20062;-66
2022/08/10 03:51:21;;;;;;;;;;;;;;;17.63;46.21;99595.84;2618419;54;20760;-66
2022/08/10 03:53:51;;;;;;;;;;;;;;;17.77;45.70;99596.59;2618589;54;19954;-67
2022/08/10 03:56:39;;;;;;;;;;;;;;;17.70;46.16;99603.81;2617771;47;19947;-67
2022/08/10 03:59:10;;;;;;;;;;;;;;;17.62;46.28;99602.22;2618280;54;19938;-66
2022/08/10 04:01:39;;;;;;;;;;;;;;;17.63;46.35;99608.38;2598451;54;20442;-67
2022/08/10 04:04:29;;;;;;;;;;;;;;;17.70;45.91;99609.97;2618850;39;20457;-67
2022/08/10 04:07:02;;;;;;;;;;;;;;;17.65;46.31;99614.34;2618742;47;19939;-67
2022/08/10 04:09:32;;;;;;;;;;;;;;;17.70;45.94;99615.31;2621611;54;19946;-68
2022/08/10 04:12:22;;;;;;;;;;;;;;;17.53;46.47;99622.25;2624993;54;19958;-67
2022/08/10 04:14:51;;;;;;;;;;;;;;;17.56;46.10;99619.97;2624142;54;19958;-67
2022/08/10 04:17:23;;;;;;;;;;;;;;;17.51;46.89;99613.63;2621817;54;20430;-65
2022/08/10 04:20:15;;;;;;;;;;;;;;;17.39;46.76;99616.22;2622428;54;19943;-66
2022/08/10 04:22:47;;;;;;;;;;;;;;;17.44;46.52;99618.22;2621524;54;19939;-66
2022/08/10 04:25:17;;;;;;;;;;;;;;;17.47;46.60;99618.63;2622004;54;19946;-66
2022/08/10 04:27:47;;;;;;;;;;;;;;;17.50;46.44;99614.66;2621342;54;19946;-66
2022/08/10 04:30:17;;;;;;;;;;;;;;;17.49;46.55;99611.19;2622096;54;19946;-66
2022/08/10 04:32:48;;;;;;;;;;;;;;;17.51;46.46;99625.16;2621849;54;19947;-67
2022/08/10 04:35:20;;;;;;;;;;;;;;;17.47;46.66;99617.75;2622169;54;19966;-68
2022/08/10 04:37:52;;;;;;;;;;;;;;;17.48;46.65;99620.25;2622042;54;20022;-67
2022/08/10 04:40:22;;;;;;;;;;;;;;;17.46;46.84;99616.13;2622782;54;19953;-67
2022/08/10 04:43:02;;;;;;;;;;;;;;;17.44;46.90;99627.06;2622289;54;19953;-66
2022/08/10 04:45:42;;;;;;;;;;;;;;;17.44;47.16;99619.03;2623355;39;20330;-66
2022/08/10 04:48:19;;;;;;;;;;;;;;;17.43;46.90;99621.91;2622234;54;19994;-66
2022/08/10 04:51:08;;;;;;;;;;;;;;;17.50;46.97;99623.50;2622247;54;19977;-66
2022/08/10 04:53:50;;;;;;;;;;;;;;;17.60;47.31;99617.69;2622087;54;19953;-67
2022/08/10 04:56:35;;;;;;;;;;;;;;;17.72;46.84;99615.94;2622668;54;19950;-66
2022/08/10 04:59:04;;;;;;;;;;;;;;;17.73;46.91;99614.88;2622484;47;19950;-67
2022/08/10 05:01:34;;;;;;;;;;;;;;;17.70;46.61;99614.50;2622565;54;19939;-65
2022/08/10 05:04:23;;;;;;;;;;;;;;;17.76;46.53;99611.00;2622785;54;19950;-66
2022/08/10 05:07:10;;;;;;;;;;;;;;;17.83;47.13;99615.22;2621571;54;19953;-66
2022/08/10 05:09:48;;;;;;;;;;;;;;;17.96;46.70;99610.78;2620542;39;20345;-67
2022/08/10 05:12:34;;;;;;;;;;;;;;;18.00;46.64;99615.50;2618347;54;19943;-65
2022/08/10 05:15:07;;;;;;;;;;;;;;;18.02;46.13;99612.59;2618014;54;19946;-66
2022/08/10 05:17:37;;;;;;;;;;;;;;;18.03;46.30;99617.72;2617035;54;19954;-66
2022/08/10 05:20:08;;;;;;;;;;;;;;;18.06;46.57;99619.13;2618375;54;19946;-66
2022/08/10 05:22:38;;;;;;;;;;;;;;;18.14;46.52;99626.06;2619413;54;19946;-66
2022/08/10 05:25:12;;;;;;;;;;;;;;;18.13;46.16;99624.44;2619084;54;19990;-65
2022/08/10 05:27:42;;;;;;;;;;;;;;;18.19;46.29;99621.66;2619257;54;19950;-66
2022/08/10 05:30:13;;;;;;;;;;;;;;;18.24;46.03;99624.50;2619027;39;20036;-67
2022/08/10 05:32:43;;;;;;;;;;;;;;;18.34;45.91;99629.34;2618676;54;19946;-67
2022/08/10 05:35:26;;;;;;;;;;;;;;;18.44;45.50;99626.94;2620376;39;20350;-65
2022/08/10 05:37:57;;;;;;;;;;;;;;;18.40;46.07;99627.63;2618748;54;19946;-67
2022/08/10 05:40:45;;;;;;;;;;;;;;;18.59;45.39;99637.28;2619083;54;19947;-67
2022/08/10 05:43:19;;;;;;;;;;;;;;;18.80;45.39;99623.44;2618237;54;19946;-66
2022/08/10 05:45:50;;;;;;;;;;;;;;;18.96;44.68;99627.38;2618088;54;19939;-66
2022/08/10 05:48:40;;;;;;;;;;;;;;;19.15;44.32;99624.66;2618568;54;19947;-66
2022/08/10 05:51:29;;;;;;;;;;;;;;;19.31;43.63;99632.03;2618107;54;19939;-67
2022/08/10 05:53:59;;;;;;;;;;;;;;;19.40;43.59;99627.97;2618368;54;20098;-67
2022/08/10 05:56:39;;;;;;;;;;;;;;;19.42;43.51;99639.28;2618125;54;19947;-67
2022/08/10 05:59:27;;;;;;;;;;;;;;;19.46;42.97;99631.59;2618108;54;19962;-67
2022/08/10 06:02:21;;;;;;;;;;;;;;;19.53;42.66;99633.13;2618883;31;20410;-68
2022/08/10 06:05:06;;;;;;;;;;;;;;;19.60;42.26;99629.53;2618448;54;19969;-67
2022/08/10 06:07:36;;;;;;;;;;;;;;;19.68;42.69;99645.31;2618131;54;19951;-67
2022/08/10 06:10:07;;;;;;;;;;;;;;;19.77;42.45;99642.03;2618727;54;19939;-66
2022/08/10 06:12:42;;;;;;;;;;;;;;;19.91;42.08;99639.13;2619195;54;19957;-68
2022/08/10 06:15:22;;;;;;;;;;;;;;;20.04;41.98;99641.56;2620387;54;19945;-66
2022/08/10 06:18:13;;;;;;;;;;;;;;;20.12;41.94;99643.09;2620717;39;20469;-67
2022/08/10 06:20:43;;;;;;;;;;;;;;;20.23;42.01;99643.09;2620185;54;19953;-66
2022/08/10 06:23:13;;;;;;;;;;;;;;;20.33;41.60;99647.88;2620663;54;19957;-66
2022/08/10 06:25:43;;;;;;;;;;;;;;;20.40;41.70;99647.72;2620685;54;19954;-66
2022/08/10 06:28:36;;;;;;;;;;;;;;;20.47;41.22;99645.75;2618980;54;20055;-66
2022/08/10 06:31:06;;;;;;;;;;;;;;;20.60;40.92;99650.06;2618941;54;19947;-66
2022/08/10 06:33:38;;;;;;;;;;;;;;;20.68;40.80;99644.31;2619205;54;19958;-67
2022/08/10 06:36:08;;;;;;;;;;;;;;;20.69;41.27;99646.75;2620100;54;19946;-67
2022/08/10 06:38:39;;;;;;;;;;;;;;;20.84;40.72;99642.75;2619534;54;19946;-67
2022/08/10 06:41:10;;;;;;;;;;;;;;;20.98;40.58;99641.41;2619841;54;19939;-67
2022/08/10 06:43:49;;;;;;;;;;;;;;;21.05;40.41;99636.69;2620393;54;19950;-66
2022/08/10 06:46:21;;;;;;;;;;;;;;;21.19;40.33;99637.25;2620408;54;19954;-66
2022/08/10 06:48:52;;;;;;;;;;;;;;;21.27;40.47;99631.47;2619172;54;19945;-67
2022/08/10 06:51:23;;;;;;;;;;;;;;;21.33;39.77;99637.78;2618757;54;19939;-66
2022/08/10 06:53:54;;;;;;;;;;;;;;;21.33;39.88;99640.47;2618682;54;19938;-67
2022/08/10 06:56:25;;;;;;;;;;;;;;;21.32;39.61;99633.44;2618325;54;19969;-67
2022/08/10 06:59:14;;;;;;;;;;;;;;;21.44;40.32;99632.31;2619079;39;20339;-67
2022/08/10 07:01:54;;;;;;;;;;;;;;;21.63;39.74;99629.38;2619296;54;19951;-67
2022/08/10 07:04:25;;;;;;;;;;;;;;;21.80;39.15;99632.06;2619445;54;19946;-66
2022/08/10 07:07:03;;;;;;;;;;;;;;;21.88;39.21;99626.28;2620250;54;19939;-65
2022/08/10 07:09:34;;;;;;;;;;;;;;;21.93;38.94;99632.56;2619241;54;19954;-66
2022/08/10 07:12:03;;;;;;;;;;;;;;;22.08;38.86;99631.13;2618626;54;19938;-67
2022/08/10 07:14:42;;;;;;;;;;;;;;;22.15;39.05;99627.25;2618691;47;19947;-66
2022/08/10 07:17:13;;;;;;;;;;;;;;;22.30;38.35;99623.13;2619383;54;19939;-67
2022/08/10 07:19:46;;;;;;;;;;;;;;;22.44;37.91;99619.00;2618792;54;20087;-66
2022/08/10 07:22:21;;;;;;;;;;;;;;;22.64;37.28;99629.22;2618670;54;19962;-66
2022/08/10 07:25:12;;;;;;;;;;;;;;;22.77;37.22;99619.94;2618835;54;19981;-67
2022/08/10 07:27:43;;;;;;;;;;;;;;;22.91;36.87;99630.09;2617846;51;19938;-66
2022/08/10 07:30:33;;;;;;;;;;;;;;;23.06;36.81;99629.44;2618445;54;19970;-66
2022/08/10 07:33:03;;;;;;;;;;;;;;;23.17;36.56;99625.78;2618277;39;20365;-67
2022/08/10 07:35:34;;;;;;;;;;;;;;;23.28;36.49;99625.88;2618196;54;19953;-66
2022/08/10 07:38:13;;;;;;;;;;;;;;;23.45;35.54;99623.88;2618359;54;19957;-67
2022/08/10 07:40:43;;;;;;;;;;;;;;;23.58;34.78;99626.13;2618401;54;20439;-64
2022/08/10 07:43:14;;;;;;;;;;;;;;;23.61;35.46;99630.22;2618416;54;19946;-66
2022/08/10 07:45:47;;;;;;;;;;;;;;;23.65;35.11;99626.75;2618277;54;19947;-66
2022/08/10 07:48:18;;;;;;;;;;;;;;;23.79;34.42;99627.13;2618451;39;20329;-66
2022/08/10 07:50:48;;;;;;;;;;;;;;;23.91;34.56;99622.34;2618402;54;19953;-66
2022/08/10 07:53:20;;;;;;;;;;;;;;;24.03;34.24;99622.16;2617672;54;19950;-66
2022/08/10 07:55:51;;;;;;;;;;;;;;;24.09;34.26;99626.53;2618344;54;19946;-67
2022/08/10 07:58:37;;;;;;;;;;;;;;;24.14;33.76;99631.94;2618486;54;20181;-67
2022/08/10 08:01:09;;;;;;;;;;;;;;;24.22;33.43;99627.94;2618619;54;19954;-67
2022/08/10 08:03:39;;;;;;;;;;;;;;;24.24;33.72;99633.88;2618542;54;20423;-66
2022/08/10 08:06:09;;;;;;;;;;;;;;;24.36;33.51;99623.69;2618596;54;19946;-68
2022/08/10 08:08:42;;;;;;;;;;;;;;;24.45;33.17;99622.16;2618383;54;19947;-66
2022/08/10 08:11:13;;;;;;;;;;;;;;;24.47;32.70;99619.19;2618060;47;19953;-65
2022/08/10 08:13:55;;;;;;;;;;;;;;;24.52;32.66;99623.78;2619120;54;19946;-66
2022/08/10 08:16:28;;;;;;;;;;;;;;;24.70;32.29;99620.63;2618612;54;19953;-67
2022/08/10 08:18:58;;;;;;;;;;;;;;;24.78;32.59;99627.38;2618408;54;19946;-66
2022/08/10 08:21:48;;;;;;;;;;;;;;;24.85;32.35;99625.25;2618807;54;20510;-66
2022/08/10 08:24:38;;;;;;;;;;;;;;;24.93;31.95;99620.13;2619021;54;19973;-65
2022/08/10 08:27:09;;;;;;;;;;;;;;;25.01;32.27;99629.63;2618930;54;20054;-67
2022/08/10 08:29:40;;;;;;;;;;;;;;;25.01;31.62;99621.50;2618988;39;20389;-68
2022/08/10 08:32:13;;;;;;;;;;;;;;;25.04;32.01;99618.25;2620657;39;20303;-65
2022/08/10 08:34:43;;;;;;;;;;;;;;;25.12;31.51;99614.25;2618380;47;19950;-66
2022/08/10 08:37:16;;;;;;;;;;;;;;;25.15;31.74;99617.25;2619279;39;20346;-67
2022/08/10 08:40:06;;;;;;;;;;;;;;;25.24;31.54;99614.81;2619805;31;20440;-67
2022/08/10 08:42:51;;;;;;;;;;;;;;;25.33;31.02;99612.38;2619029;54;19939;-66
2022/08/10 08:45:24;;;;;;;;;;;;;;;25.40;31.30;99615.63;2618210;54;19943;-66
2022/08/10 08:48:09;;;;;;;;;;;;;;;25.42;31.15;99602.63;2618845;54;19938;-67
2022/08/10 08:50:46;;;;;;;;;;;;;;;25.46;30.86;99603.72;2618869;54;19973;-67
2022/08/10 08:53:29;;;;;;;;;;;;;;;25.50;30.99;99612.91;2618823;54;19946;-68
2022/08/10 08:56:23;;;;;;;;;;;;;;;25.61;31.27;99603.72;2618940;54;19981;-66
2022/08/10 08:59:01;;;;;;;;;;;;;;;25.83;30.40;99606.16;2618829;54;19938;-66
2022/08/10 09:01:39;;;;;;;;;;;;;;;25.91;30.06;99608.28;2618896;54;19939;-66
2022/08/10 09:04:19;;;;;;;;;;;;;;;25.98;30.38;99599.91;2618086;54;20445;-66
2022/08/10 09:06:56;;;;;;;;;;;;;;;26.07;29.81;99600.13;2618571;54;19969;-66
2022/08/10 09:09:34;;;;;;;;;;;;;;;26.21;29.52;99605.78;2618740;54;19954;-67
2022/08/10 09:12:13;;;;;;;;;;;;;;;26.32;28.99;99604.66;2618311;54;20006;-66
2022/08/10 09:14:46;;;;;;;;;;;;;;;26.41;28.13;99603.00;2618667;54;19953;-66
2022/08/10 09:17:20;;;;;;;;;;;;;;;26.57;27.22;99595.63;2618489;54;19939;-66
2022/08/10 09:19:56;;;;;;;;;;;;;;;26.56;27.77;99592.13;2618709;54;19939;-66
2022/08/10 09:22:28;;;;;;;;;;;;;;;26.62;27.44;99585.59;2622951;54;19943;-66
2022/08/10 09:24:59;;;;;;;;;;;;;;;26.75;26.75;99586.88;2620219;54;19946;-66
2022/08/10 09:27:34;;;;;;;;;;;;;;;26.80;26.80;99586.84;2618274;54;19946;-66
2022/08/10 09:30:09;;;;;;;;;;;;;;;26.85;26.79;99591.41;2618303;54;19939;-66
2022/08/10 09:32:42;;;;;;;;;;;;;;;26.97;27.07;99586.47;2618260;54;20458;-67
2022/08/10 09:35:39;;;;;;;;;;;;;;;27.02;26.36;99581.00;2618962;54;19962;-66
2022/08/10 09:38:36;;;;;;;;;;;;;;;26.99;26.73;99578.06;2619625;54;20484;-66
2022/08/10 09:41:09;;;;;;;;;;;;;;;27.03;26.88;99569.06;2619989;54;19938;-65
2022/08/10 09:43:49;;;;;;;;;;;;;;;27.20;26.47;99567.91;2619497;54;20468;-65
2022/08/10 09:46:25;;;;;;;;;;;;;;;27.36;25.85;99572.91;2623617;54;19946;-67
2022/08/10 09:49:00;;;;;;;;;;;;;;;27.34;26.18;99579.69;2624183;54;19969;-66
2022/08/10 09:51:36;;;;;;;;;;;;;;;27.41;26.22;99569.34;2621804;54;19947;-67
2022/08/10 09:54:28;;;;;;;;;;;;;;;27.47;26.03;99572.81;2622189;54;20431;-68
2022/08/10 09:57:05;;;;;;;;;;;;;;;27.59;26.04;99574.03;2622415;54;20053;-67
2022/08/10 09:59:58;;;;;;;;;;;;;;;27.67;25.62;99567.97;2621821;54;19971;-67
2022/08/10 10:02:37;;;;;;;;;;;;;;;27.67;25.64;99554.41;2623074;54;19950;-66
2022/08/10 10:05:12;;;;;;;;;;;;;;;27.66;25.25;99552.78;2623450;54;19947;-67
2022/08/10 10:07:47;;;;;;;;;;;;;;;27.66;25.58;99552.78;2624427;54;19947;-68
2022/08/10 10:10:20;;;;;;;;;;;;;;;27.73;26.00;99559.81;2624449;54;19943;-66
2022/08/10 10:12:52;;;;;;;;;;;;;;;27.74;26.01;99561.44;2624950;54;19946;-66
2022/08/10 10:15:27;;;;;;;;;;;;;;;27.74;25.47;99556.81;2625158;54;19947;-69
2022/08/10 10:18:04;;;;;;;;;;;;;;;27.48;26.09;99548.09;2623567;54;19946;-67
2022/08/10 10:20:36;;;;;;;;;;;;;;;27.42;26.06;99554.66;2623734;47;19946;-65
2022/08/10 10:23:15;;;;;;;;;;;;;;;27.31;26.38;99555.84;2625393;54;19947;-67
2022/08/10 10:25:47;;;;;;;;;;;;;;;27.23;26.28;99551.84;2624072;54;19950;-66
2022/08/10 10:28:32;;;;;;;;;;;;;;;27.08;26.99;99546.50;2624883;54;19945;-67
2022/08/10 16:18:13;;;;;;;;;;;;;;;31.21;17.58;99260.59;2619663;46;20093;-66
2022/08/10 16:20:48;;;;;;;;;;;;;;;31.24;17.72;99258.03;2619429;54;19939;-67
2022/08/10 16:23:25;;;;;;;;;;;;;;;31.26;17.77;99261.25;2620002;39;20425;-65
2022/08/10 16:25:57;;;;;;;;;;;;;;;31.35;17.75;99257.75;2619974;39;20353;-67
2022/08/10 16:28:35;;;;;;;;;;;;;;;31.37;17.48;99250.06;2618766;54;19939;-67
2022/08/10 16:31:07;;;;;;;;;;;;;;;31.32;17.87;99261.94;2619470;54;19946;-66
2022/08/10 16:33:39;;;;;;;;;;;;;;;31.18;17.66;99255.75;2619454;54;19938;-66
2022/08/10 16:36:23;;;;;;;;;;;;;;;31.08;17.18;99248.69;2619146;54;19939;-67
2022/08/10 16:38:56;;;;;;;;;;;;;;;30.98;17.63;99257.97;2619782;39;20334;-66
2022/08/10 16:41:28;;;;;;;;;;;;;;;31.03;17.39;99249.66;2618885;47;19939;-66
2022/08/10 16:44:19;;;;;;;;;;;;;;;31.06;17.22;99245.47;2619783;54;19942;-66
2022/08/10 16:46:49;;;;;;;;;;;;;;;31.08;17.56;99252.22;2619148;54;19938;-66
2022/08/10 16:49:22;;;;;;;;;;;;;;;31.21;17.54;99241.47;2619175;54;19939;-66
2022/08/10 16:51:53;;;;;;;;;;;;;;;31.40;17.40;99239.31;2619270;39;20339;-66
2022/08/10 16:54:23;;;;;;;;;;;;;;;31.47;17.29;99241.53;2619446;54;19938;-67
2022/08/10 16:57:00;;;;;;;;;;;;;;;31.52;17.09;99238.66;2619389;39;20343;-66
2022/08/10 16:59:32;;;;;;;;;;;;;;;31.55;17.39;99233.34;2619672;39;20334;-66
2022/08/10 17:02:03;;;;;;;;;;;;;;;31.67;17.23;99234.63;2619419;54;19969;-66
2022/08/10 17:04:35;;;;;;;;;;;;;;;31.74;16.94;99232.22;2618984;54;19939;-66
2022/08/10 17:07:07;;;;;;;;;;;;;;;31.66;16.82;99227.56;2619533;54;19939;-66
2022/08/10 17:09:38;;;;;;;;;;;;;;;31.68;16.91;99223.41;2619657;39;20346;-67
2022/08/10 17:12:10;;;;;;;;;;;;;;;31.74;16.82;99227.56;2618513;54;19947;-67
2022/08/10 17:14:41;;;;;;;;;;;;;;;31.76;17.17;99228.06;2619193;54;19998;-66
2022/08/10 17:17:14;;;;;;;;;;;;;;;31.75;17.06;99229.16;2618812;54;20038;-66
2022/08/10 17:19:46;;;;;;;;;;;;;;;31.71;16.82;99227.41;2619137;54;19945;-66
2022/08/10 17:22:17;;;;;;;;;;;;;;;31.72;17.29;99234.47;2620900;54;19939;-66
2022/08/10 17:24:48;;;;;;;;;;;;;;;31.84;16.88;99226.44;2619682;54;19942;-66
2022/08/10 17:27:19;;;;;;;;;;;;;;;31.92;17.21;99225.63;2619031;54;19939;-66
2022/08/10 17:30:10;;;;;;;;;;;;;;;32.01;16.72;99231.13;2619151;54;19973;-66
2022/08/10 17:33:00;;;;;;;;;;;;;;;31.97;17.02;99233.69;2618969;54;19962;-66
2022/08/10 17:35:34;;;;;;;;;;;;;;;32.10;16.76;99231.91;2618547;47;20446;-66
2022/08/10 17:38:07;;;;;;;;;;;;;;;32.12;16.97;99220.63;2618784;54;19938;-66
2022/08/10 17:40:43;;;;;;;;;;;;;;;32.08;16.88;99219.66;2618836;54;19946;-66
2022/08/10 17:43:13;;;;;;;;;;;;;;;32.02;16.88;99233.50;2619237;39;20002;-65
2022/08/10 17:46:03;;;;;;;;;;;;;;;32.06;17.00;99234.47;2618852;54;19947;-67
2022/08/10 17:48:35;;;;;;;;;;;;;;;32.21;16.81;99224.13;2618924;54;20074;-66
2022/08/10 17:51:11;;;;;;;;;;;;;;;32.24;16.74;99235.22;2619047;54;19946;-66
2022/08/10 17:53:41;;;;;;;;;;;;;;;32.20;16.93;99225.25;2618945;39;20329;-66
2022/08/10 17:56:12;;;;;;;;;;;;;;;31.99;17.00;99228.69;2618554;54;19954;-66
2022/08/10 17:58:46;;;;;;;;;;;;;;;31.52;17.02;99239.47;2617732;47;19953;-66
2022/08/10 18:01:20;;;;;;;;;;;;;;;31.04;17.42;99232.13;2618737;54;19946;-65
2022/08/10 18:04:13;;;;;;;;;;;;;;;30.49;17.81;99229.81;2618166;47;20465;-66
2022/08/10 18:06:46;;;;;;;;;;;;;;;30.11;18.20;99232.16;2619188;54;19966;-66
2022/08/10 18:09:25;;;;;;;;;;;;;;;29.80;18.22;99229.38;2622638;47;19954;-67
2022/08/10 18:12:00;;;;;;;;;;;;;;;29.48;18.80;99230.38;2622872;54;19946;-66
2022/08/10 18:14:39;;;;;;;;;;;;;;;29.28;19.12;99234.34;2620420;47;19994;-66
2022/08/10 22:59:52;;;;;;;;;;;;;;;20.84;35.63;99331.06;2616955;54;20448;-65
2022/08/10 23:02:29;;;;;;;;;;;;;;;20.86;35.81;99326.22;2618419;54;19982;-66
2022/08/10 23:05:03;;;;;;;;;;;;;;;20.76;36.29;99321.53;2618258;54;20112;-66
2022/08/10 23:07:37;;;;;;;;;;;;;;;20.70;36.10;99322.53;2618025;54;19946;-66
2022/08/10 23:10:07;;;;;;;;;;;;;;;20.64;36.36;99323.50;2618673;54;20458;-66
2022/08/10 23:12:39;;;;;;;;;;;;;;;20.68;36.64;99325.44;2621025;46;19963;-66
2022/08/10 23:20:41;;;;;;;;;;;;;;;20.64;36.86;99318.94;2622835;54;19938;-66
2022/08/10 23:23:16;;;;;;;;;;;;;;;20.65;36.53;99311.69;2622985;54;19950;-66
2022/08/10 23:25:53;;;;;;;;;;;;;;;20.70;36.68;99317.97;2623127;54;19943;-67
2022/08/10 23:28:26;;;;;;;;;;;;;;;20.73;36.04;99313.97;2623913;54;19991;-66
2022/08/10 23:31:11;;;;;;;;;;;;;;;20.61;36.67;99316.75;2627479;54;19946;-66
2022/08/10 23:33:41;;;;;;;;;;;;;;;20.50;36.58;99314.97;2626880;54;19945;-66
2022/08/10 23:36:12;;;;;;;;;;;;;;;20.33;37.04;99319.47;2621568;54;19938;-66
2022/08/10 23:39:06;;;;;;;;;;;;;;;20.10;37.98;99321.25;2622244;47;19958;-66
2022/08/10 23:41:57;;;;;;;;;;;;;;;19.94;37.96;99327.41;2622968;54;19957;-67
2022/08/10 23:44:35;;;;;;;;;;;;;;;19.93;37.88;99328.47;2622467;47;19942;-67
2022/08/10 23:47:05;;;;;;;;;;;;;;;19.85;38.56;99328.88;2622159;54;19945;-66
2022/08/10 23:49:35;;;;;;;;;;;;;;;19.73;38.73;99327.03;2618874;54;19954;-67
2022/08/10 23:52:12;;;;;;;;;;;;;;;19.72;38.62;99322.72;2618616;54;19946;-67
2022/08/10 23:54:49;;;;;;;;;;;;;;;19.88;38.57;99325.69;2621237;54;19953;-66
2022/08/10 23:57:20;;;;;;;;;;;;;;;19.87;38.55;99322.19;2620297;54;19946;-66
2022/08/10 23:59:54;;;;;;;;;;;;;;;19.84;38.21;99321.84;2621387;54;19999;-66
